sensor_id;sensor_type;location;lat;lon;timestamp;pressure;altitude;pressure_sealevel;temperature;humidity
77939;BME280;67136;47.546;21.630;2023-06-26T00:02:51;100060.34;;;17.97;78.56
77939;BME280;67136;47.546;21.630;2023-06-26T00:05:54;100055.41;;;17.94;79.18
77939;BME280;67136;47.546;21.630;2023-06-26T00:09:01;100057.66;;;17.82;79.01
77939;BME280;67136;47.546;21.630;2023-06-26T00:12:04;100053.72;;;17.78;79.42
77939;BME280;67136;47.546;21.630;2023-06-26T00:15:07;100053.91;;;17.77;80.00
77939;BME280;67136;47.546;21.630;2023-06-26T00:18:10;100052.97;;;17.70;80.25
77939;BME280;67136;47.546;21.630;2023-06-26T00:21:13;100056.31;;;17.64;80.14
77939;BME280;67136;47.546;21.630;2023-06-26T00:24:16;100052.56;;;17.58;80.85
77939;BME280;67136;47.546;21.630;2023-06-26T00:27:19;100054.53;;;17.56;80.62
77939;BME280;67136;47.546;21.630;2023-06-26T00:30:21;100045.34;;;17.52;81.12
77939;BME280;67136;47.546;21.630;2023-06-26T00:33:24;100049.81;;;17.52;81.69
77939;BME280;67136;47.546;21.630;2023-06-26T00:36:26;100050.50;;;17.46;81.34
77939;BME280;67136;47.546;21.630;2023-06-26T00:39:29;100049.19;;;17.42;81.52
77939;BME280;67136;47.546;21.630;2023-06-26T00:42:32;100047.88;;;17.37;81.73
77939;BME280;67136;47.546;21.630;2023-06-26T00:45:34;100045.75;;;17.33;81.91
77939;BME280;67136;47.546;21.630;2023-06-26T00:48:46;100047.09;;;17.29;82.02
77939;BME280;67136;47.546;21.630;2023-06-26T00:51:50;100037.06;;;17.24;82.32
77939;BME280;67136;47.546;21.630;2023-06-26T00:54:53;100036.41;;;17.22;83.04
77939;BME280;67136;47.546;21.630;2023-06-26T00:57:55;100035.75;;;17.20;82.59
77939;BME280;67136;47.546;21.630;2023-06-26T01:01:03;100034.31;;;17.18;82.53
77939;BME280;67136;47.546;21.630;2023-06-26T01:04:07;100038.41;;;17.20;82.45
77939;BME280;67136;47.546;21.630;2023-06-26T01:07:20;100036.47;;;17.14;82.45
77939;BME280;67136;47.546;21.630;2023-06-26T01:10:23;100034.19;;;17.11;82.66
77939;BME280;67136;47.546;21.630;2023-06-26T01:13:28;100031.91;;;17.08;83.09
77939;BME280;67136;47.546;21.630;2023-06-26T01:16:32;100030.22;;;17.07;83.33
77939;BME280;67136;47.546;21.630;2023-06-26T01:19:36;100027.94;;;17.04;82.86
77939;BME280;67136;47.546;21.630;2023-06-26T01:26:26;100030.94;;;17.01;83.28
77939;BME280;67136;47.546;21.630;2023-06-26T01:29:30;100033.41;;;17.03;83.68
77939;BME280;67136;47.546;21.630;2023-06-26T01:32:35;100029.97;;;16.94;83.37
77939;BME280;67136;47.546;21.630;2023-06-26T01:35:38;100026.87;;;16.91;83.66
77939;BME280;67136;47.546;21.630;2023-06-26T01:38:41;100033.97;;;16.90;83.62
77939;BME280;67136;47.546;21.630;2023-06-26T01:41:43;100030.69;;;16.88;83.79
77939;BME280;67136;47.546;21.630;2023-06-26T01:44:46;100029.69;;;16.89;83.81
77939;BME280;67136;47.546;21.630;2023-06-26T01:47:51;100028.66;;;16.90;84.31
77939;BME280;67136;47.546;21.630;2023-06-26T01:50:58;100026.87;;;16.91;83.83
77939;BME280;67136;47.546;21.630;2023-06-26T01:54:02;100019.13;;;16.89;83.98
77939;BME280;67136;47.546;21.630;2023-06-26T01:57:08;100018.47;;;16.87;84.77
77939;BME280;67136;47.546;21.630;2023-06-26T02:00:14;100020.13;;;16.88;84.40
77939;BME280;67136;47.546;21.630;2023-06-26T02:03:20;100027.69;;;16.91;84.45
77939;BME280;67136;47.546;21.630;2023-06-26T02:06:24;100027.03;;;16.89;84.31
77939;BME280;67136;47.546;21.630;2023-06-26T02:09:27;100023.91;;;16.86;84.71
77939;BME280;67136;47.546;21.630;2023-06-26T02:12:31;100024.41;;;16.89;84.92
77939;BME280;67136;47.546;21.630;2023-06-26T02:15:33;100021.62;;;16.83;85.01
77939;BME280;67136;47.546;21.630;2023-06-26T02:18:36;100028.38;;;16.85;84.97
77939;BME280;67136;47.546;21.630;2023-06-26T02:21:38;100027.59;;;16.77;84.91
77939;BME280;67136;47.546;21.630;2023-06-26T02:24:44;100037.00;;;16.79;84.64
77939;BME280;67136;47.546;21.630;2023-06-26T02:27:46;100027.13;;;16.73;84.86
77939;BME280;67136;47.546;21.630;2023-06-26T02:30:49;100034.34;;;16.79;84.85
77939;BME280;67136;47.546;21.630;2023-06-26T02:33:52;100036.03;;;16.72;84.87
77939;BME280;67136;47.546;21.630;2023-06-26T02:36:55;100034.41;;;16.71;85.12
77939;BME280;67136;47.546;21.630;2023-06-26T02:39:58;100030.75;;;16.72;84.97
77939;BME280;67136;47.546;21.630;2023-06-26T02:43:01;100036.22;;;16.71;85.39
77939;BME280;67136;47.546;21.630;2023-06-26T02:46:05;100034.41;;;16.71;85.30
77939;BME280;67136;47.546;21.630;2023-06-26T02:49:09;100039.69;;;16.71;85.75
77939;BME280;67136;47.546;21.630;2023-06-26T02:52:12;100037.34;;;16.68;85.54
77939;BME280;67136;47.546;21.630;2023-06-26T02:55:14;100037.34;;;16.76;85.61
77939;BME280;67136;47.546;21.630;2023-06-26T02:58:17;100034.72;;;16.68;85.68
77939;BME280;67136;47.546;21.630;2023-06-26T03:01:20;100039.38;;;16.66;85.83
77939;BME280;67136;47.546;21.630;2023-06-26T03:04:23;100034.88;;;16.67;86.22
77939;BME280;67136;47.546;21.630;2023-06-26T03:07:26;100038.84;;;16.71;86.00
77939;BME280;67136;47.546;21.630;2023-06-26T03:10:28;100039.53;;;16.65;86.30
77939;BME280;67136;47.546;21.630;2023-06-26T03:13:33;100043.28;;;16.70;86.75
77939;BME280;67136;47.546;21.630;2023-06-26T03:16:36;100038.84;;;16.71;86.84
77939;BME280;67136;47.546;21.630;2023-06-26T03:19:39;100043.28;;;16.70;86.53
77939;BME280;67136;47.546;21.630;2023-06-26T03:22:43;100039.97;;;16.76;86.50
77939;BME280;67136;47.546;21.630;2023-06-26T03:25:47;100036.34;;;16.77;87.09
77939;BME280;67136;47.546;21.630;2023-06-26T03:28:53;100040.28;;;16.81;86.56
77939;BME280;67136;47.546;21.630;2023-06-26T03:31:56;100044.22;;;16.85;86.73
77939;BME280;67136;47.546;21.630;2023-06-26T03:34:59;100038.91;;;16.93;86.33
77939;BME280;67136;47.546;21.630;2023-06-26T03:38:04;100040.19;;;16.97;86.23
77939;BME280;67136;47.546;21.630;2023-06-26T03:41:07;100044.81;;;17.03;86.19
77939;BME280;67136;47.546;21.630;2023-06-26T03:44:10;100040.28;;;17.12;86.31
77939;BME280;67136;47.546;21.630;2023-06-26T03:47:15;100044.69;;;17.19;85.57
77939;BME280;67136;47.546;21.630;2023-06-26T03:50:19;100052.56;;;17.27;85.34
77939;BME280;67136;47.546;21.630;2023-06-26T03:53:22;100053.53;;;17.34;85.19
77939;BME280;67136;47.546;21.630;2023-06-26T03:56:25;100056.09;;;17.42;84.78
77939;BME280;67136;47.546;21.630;2023-06-26T03:59:28;100049.63;;;17.53;84.69
77939;BME280;67136;47.546;21.630;2023-06-26T04:02:31;100049.06;;;17.58;84.27
77939;BME280;67136;47.546;21.630;2023-06-26T04:05:52;100056.97;;;17.66;84.10
77939;BME280;67136;47.546;21.630;2023-06-26T04:08:55;100054.63;;;17.71;83.78
77939;BME280;67136;47.546;21.630;2023-06-26T04:11:57;100052.19;;;17.84;83.29
77939;BME280;67136;47.546;21.630;2023-06-26T04:15:00;100059.03;;;17.93;82.96
77939;BME280;67136;47.546;21.630;2023-06-26T04:18:03;100060.91;;;18.07;82.70
77939;BME280;67136;47.546;21.630;2023-06-26T04:21:08;100068.66;;;18.23;81.95
77939;BME280;67136;47.546;21.630;2023-06-26T04:24:11;100068.94;;;18.28;81.83
77939;BME280;67136;47.546;21.630;2023-06-26T04:27:17;100073.47;;;18.42;81.66
77939;BME280;67136;47.546;21.630;2023-06-26T04:30:19;100064.06;;;18.54;81.15
77939;BME280;67136;47.546;21.630;2023-06-26T04:33:22;100066.25;;;18.65;80.81
77939;BME280;67136;47.546;21.630;2023-06-26T04:36:25;100071.09;;;18.76;80.20
77939;BME280;67136;47.546;21.630;2023-06-26T04:39:31;100064.34;;;18.88;79.69
77939;BME280;67136;47.546;21.630;2023-06-26T04:42:34;100064.88;;;18.98;79.17
77939;BME280;67136;47.546;21.630;2023-06-26T04:45:36;100061.34;;;19.12;78.54
77939;BME280;67136;47.546;21.630;2023-06-26T04:48:39;100057.19;;;19.24;78.15
77939;BME280;67136;47.546;21.630;2023-06-26T04:51:42;100058.75;;;19.33;77.60
77939;BME280;67136;47.546;21.630;2023-06-26T04:54:44;100057.53;;;19.50;77.27
77939;BME280;67136;47.546;21.630;2023-06-26T04:57:47;100066.59;;;19.62;76.69
77939;BME280;67136;47.546;21.630;2023-06-26T05:00:50;100069.25;;;19.84;75.64
77939;BME280;67136;47.546;21.630;2023-06-26T05:03:52;100064.44;;;19.94;74.90
77939;BME280;67136;47.546;21.630;2023-06-26T05:06:55;100063.25;;;20.03;75.06
77939;BME280;67136;47.546;21.630;2023-06-26T05:09:57;100065.16;;;20.09;74.78
77939;BME280;67136;47.546;21.630;2023-06-26T05:13:00;100062.62;;;20.22;74.38
77939;BME280;67136;47.546;21.630;2023-06-26T05:16:03;100060.28;;;20.40;72.88
77939;BME280;67136;47.546;21.630;2023-06-26T05:19:06;100064.03;;;20.52;72.69
77939;BME280;67136;47.546;21.630;2023-06-26T05:22:09;100060.87;;;20.69;71.46
77939;BME280;67136;47.546;21.630;2023-06-26T05:25:13;100069.50;;;20.71;71.74
77939;BME280;67136;47.546;21.630;2023-06-26T05:28:16;100055.28;;;20.98;71.30
77939;BME280;67136;47.546;21.630;2023-06-26T05:31:20;100058.81;;;21.12;70.86
77939;BME280;67136;47.546;21.630;2023-06-26T05:34:23;100065.19;;;21.11;70.75
77939;BME280;67136;47.546;21.630;2023-06-26T05:37:28;100064.44;;;21.30;70.25
77939;BME280;67136;47.546;21.630;2023-06-26T05:40:31;100064.47;;;21.50;69.99
77939;BME280;67136;47.546;21.630;2023-06-26T05:43:34;100063.06;;;21.73;69.19
77939;BME280;67136;47.546;21.630;2023-06-26T05:46:37;100052.66;;;21.85;67.90
77939;BME280;67136;47.546;21.630;2023-06-26T05:49:41;100061.66;;;21.84;66.91
77939;BME280;67136;47.546;21.630;2023-06-26T05:52:43;100069.84;;;22.08;65.67
77939;BME280;67136;47.546;21.630;2023-06-26T05:55:47;100057.53;;;22.34;65.75
77939;BME280;67136;47.546;21.630;2023-06-26T05:58:50;100059.56;;;22.51;65.73
77939;BME280;67136;47.546;21.630;2023-06-26T06:01:54;100054.94;;;22.91;63.86
77939;BME280;67136;47.546;21.630;2023-06-26T06:04:57;100057.06;;;23.20;62.45
77939;BME280;67136;47.546;21.630;2023-06-26T06:08:00;100054.50;;;23.69;60.95
77939;BME280;67136;47.546;21.630;2023-06-26T06:11:03;100060.09;;;24.17;59.60
77939;BME280;67136;47.546;21.630;2023-06-26T06:14:05;100068.22;;;24.46;58.63
77939;BME280;67136;47.546;21.630;2023-06-26T06:17:08;100063.19;;;24.56;57.84
77939;BME280;67136;47.546;21.630;2023-06-26T06:20:10;100069.03;;;24.90;56.94
77939;BME280;67136;47.546;21.630;2023-06-26T06:23:14;100060.72;;;25.57;54.50
77939;BME280;67136;47.546;21.630;2023-06-26T06:26:16;100064.22;;;26.10;53.30
77939;BME280;67136;47.546;21.630;2023-06-26T06:29:19;100063.50;;;26.72;51.18
77939;BME280;67136;47.546;21.630;2023-06-26T06:32:22;100061.03;;;26.59;50.92
77939;BME280;67136;47.546;21.630;2023-06-26T06:35:25;100058.78;;;27.31;49.15
77939;BME280;67136;47.546;21.630;2023-06-26T06:38:31;100065.78;;;28.26;47.08
77939;BME280;67136;47.546;21.630;2023-06-26T06:41:34;100075.44;;;28.60;46.15
77939;BME280;67136;47.546;21.630;2023-06-26T06:44:40;100066.72;;;28.91;44.33
77939;BME280;67136;47.546;21.630;2023-06-26T06:47:43;100073.72;;;28.92;45.00
77939;BME280;67136;47.546;21.630;2023-06-26T06:50:45;100065.19;;;29.00;44.78
77939;BME280;67136;47.546;21.630;2023-06-26T06:53:48;100065.44;;;29.20;43.20
77939;BME280;67136;47.546;21.630;2023-06-26T06:56:50;100060.19;;;29.84;42.23
77939;BME280;67136;47.546;21.630;2023-06-26T06:59:53;100056.84;;;30.08;41.91
77939;BME280;67136;47.546;21.630;2023-06-26T07:02:56;100055.09;;;30.24;41.79
77939;BME280;67136;47.546;21.630;2023-06-26T07:05:59;100052.28;;;30.09;42.42
77939;BME280;67136;47.546;21.630;2023-06-26T07:09:02;100055.03;;;30.19;41.99
77939;BME280;67136;47.546;21.630;2023-06-26T07:12:05;100059.44;;;29.35;42.74
77939;BME280;67136;47.546;21.630;2023-06-26T07:15:08;100062.28;;;30.13;41.46
77939;BME280;67136;47.546;21.630;2023-06-26T07:18:11;100053.97;;;30.67;40.87
77939;BME280;67136;47.546;21.630;2023-06-26T07:21:13;100055.56;;;30.21;41.16
77939;BME280;67136;47.546;21.630;2023-06-26T07:24:16;100066.03;;;30.44;41.03
77939;BME280;67136;47.546;21.630;2023-06-26T07:27:19;100060.91;;;30.11;39.80
77939;BME280;67136;47.546;21.630;2023-06-26T07:30:22;100071.41;;;30.44;39.14
77939;BME280;67136;47.546;21.630;2023-06-26T07:33:26;100058.41;;;30.83;38.26
77939;BME280;67136;47.546;21.630;2023-06-26T07:36:29;100062.22;;;29.72;40.05
77939;BME280;67136;47.546;21.630;2023-06-26T07:39:31;100059.84;;;31.15;38.21
77939;BME280;67136;47.546;21.630;2023-06-26T07:42:34;100066.66;;;31.28;37.40
77939;BME280;67136;47.546;21.630;2023-06-26T07:45:37;100064.88;;;32.14;37.05
77939;BME280;67136;47.546;21.630;2023-06-26T07:48:40;100067.19;;;32.75;35.91
77939;BME280;67136;47.546;21.630;2023-06-26T07:51:42;100064.75;;;32.74;34.88
77939;BME280;67136;47.546;21.630;2023-06-26T07:54:45;100068.38;;;31.99;35.92
77939;BME280;67136;47.546;21.630;2023-06-26T07:57:47;100072.00;;;32.84;34.45
77939;BME280;67136;47.546;21.630;2023-06-26T08:00:50;100067.97;;;32.91;34.57
77939;BME280;67136;47.546;21.630;2023-06-26T08:03:54;100061.72;;;33.44;33.47
77939;BME280;67136;47.546;21.630;2023-06-26T08:06:59;100057.50;;;34.01;33.45
77939;BME280;67136;47.546;21.630;2023-06-26T08:10:02;100063.97;;;34.05;33.25
77939;BME280;67136;47.546;21.630;2023-06-26T08:13:05;100065.91;;;34.80;32.16
77939;BME280;67136;47.546;21.630;2023-06-26T08:16:07;100072.62;;;35.30;31.20
77939;BME280;67136;47.546;21.630;2023-06-26T08:19:14;100070.31;;;34.99;29.82
77939;BME280;67136;47.546;21.630;2023-06-26T08:22:18;100066.09;;;36.00;28.36
77939;BME280;67136;47.546;21.630;2023-06-26T08:25:20;100071.66;;;36.08;28.58
77939;BME280;67136;47.546;21.630;2023-06-26T08:28:23;100069.53;;;36.92;26.13
77939;BME280;67136;47.546;21.630;2023-06-26T08:31:25;100068.56;;;36.29;26.96
77939;BME280;67136;47.546;21.630;2023-06-26T08:34:28;100074.37;;;36.81;26.68
77939;BME280;67136;47.546;21.630;2023-06-26T08:37:31;100068.59;;;37.59;26.06
77939;BME280;67136;47.546;21.630;2023-06-26T08:40:37;100067.50;;;36.43;27.07
77939;BME280;67136;47.546;21.630;2023-06-26T08:43:41;100066.91;;;36.60;27.37
77939;BME280;67136;47.546;21.630;2023-06-26T08:46:44;100066.84;;;37.63;26.73
77939;BME280;67136;47.546;21.630;2023-06-26T08:50:17;100062.50;;;38.06;25.95
77939;BME280;67136;47.546;21.630;2023-06-26T08:53:57;100058.16;;;37.39;26.07
77939;BME280;67136;47.546;21.630;2023-06-26T08:57:01;100074.13;;;37.90;25.62
77939;BME280;67136;47.546;21.630;2023-06-26T09:00:05;100068.63;;;37.81;26.17
77939;BME280;67136;47.546;21.630;2023-06-26T09:03:12;100063.59;;;39.06;24.51
77939;BME280;67136;47.546;21.630;2023-06-26T09:06:15;100059.84;;;39.02;24.89
77939;BME280;67136;47.546;21.630;2023-06-26T09:09:20;100058.66;;;38.38;24.15
77939;BME280;67136;47.546;21.630;2023-06-26T09:12:23;100056.81;;;39.12;23.04
77939;BME280;67136;47.546;21.630;2023-06-26T09:15:46;100058.00;;;40.42;22.10
77939;BME280;67136;47.546;21.630;2023-06-26T09:18:51;100061.97;;;39.22;23.96
77939;BME280;67136;47.546;21.630;2023-06-26T09:21:54;100063.28;;;39.33;24.05
77939;BME280;67136;47.546;21.630;2023-06-26T09:24:57;100063.06;;;37.51;26.50
77939;BME280;67136;47.546;21.630;2023-06-26T09:27:59;100055.62;;;35.56;28.85
77939;BME280;67136;47.546;21.630;2023-06-26T09:31:07;100052.75;;;35.66;28.65
77939;BME280;67136;47.546;21.630;2023-06-26T09:34:10;100060.19;;;35.61;29.07
77939;BME280;67136;47.546;21.630;2023-06-26T09:37:13;100058.94;;;35.16;28.80
77939;BME280;67136;47.546;21.630;2023-06-26T09:40:16;100054.94;;;38.25;24.65
77939;BME280;67136;47.546;21.630;2023-06-26T09:43:19;100062.31;;;38.03;23.96
77939;BME280;67136;47.546;21.630;2023-06-26T09:46:26;100054.19;;;36.42;26.25
77939;BME280;67136;47.546;21.630;2023-06-26T09:49:30;100051.25;;;33.66;30.37
77939;BME280;67136;47.546;21.630;2023-06-26T09:52:35;100061.25;;;32.68;31.79
77939;BME280;67136;47.546;21.630;2023-06-26T09:55:38;100054.09;;;35.13;28.25
77939;BME280;67136;47.546;21.630;2023-06-26T09:58:42;100050.13;;;35.61;27.21
77939;BME280;67136;47.546;21.630;2023-06-26T10:01:46;100052.81;;;34.82;28.11
77939;BME280;67136;47.546;21.630;2023-06-26T10:04:49;100054.72;;;35.79;27.65
77939;BME280;67136;47.546;21.630;2023-06-26T10:07:53;100050.37;;;36.43;26.97
77939;BME280;67136;47.546;21.630;2023-06-26T10:10:57;100054.88;;;35.14;27.92
77939;BME280;67136;47.546;21.630;2023-06-26T10:14:01;100044.25;;;34.23;29.30
77939;BME280;67136;47.546;21.630;2023-06-26T10:17:20;100048.88;;;32.47;30.71
77939;BME280;67136;47.546;21.630;2023-06-26T10:20:24;100050.75;;;33.16;29.94
77939;BME280;67136;47.546;21.630;2023-06-26T10:23:30;100041.28;;;36.01;25.68
77939;BME280;67136;47.546;21.630;2023-06-26T10:26:38;100043.53;;;38.80;22.55
77939;BME280;67136;47.546;21.630;2023-06-26T10:29:53;100052.03;;;39.60;21.90
77939;BME280;67136;47.546;21.630;2023-06-26T10:32:56;100049.75;;;37.93;23.96
77939;BME280;67136;47.546;21.630;2023-06-26T10:36:20;100040.31;;;37.55;24.08
77939;BME280;67136;47.546;21.630;2023-06-26T10:39:49;100054.19;;;36.96;25.34
77939;BME280;67136;47.546;21.630;2023-06-26T10:43:06;100043.44;;;37.13;24.83
77939;BME280;67136;47.546;21.630;2023-06-26T10:46:10;100038.59;;;38.51;22.66
77939;BME280;67136;47.546;21.630;2023-06-26T10:49:13;100036.13;;;38.72;23.19
77939;BME280;67136;47.546;21.630;2023-06-26T10:52:16;100038.22;;;40.20;21.74
77939;BME280;67136;47.546;21.630;2023-06-26T10:55:27;100045.25;;;37.53;23.96
77939;BME280;67136;47.546;21.630;2023-06-26T10:58:33;100039.41;;;35.51;25.56
77939;BME280;67136;47.546;21.630;2023-06-26T11:01:40;100038.50;;;34.53;27.92
77939;BME280;67136;47.546;21.630;2023-06-26T11:04:46;100041.44;;;33.70;29.01
77939;BME280;67136;47.546;21.630;2023-06-26T11:08:03;100036.69;;;32.40;31.42
77939;BME280;67136;47.546;21.630;2023-06-26T11:11:07;100035.50;;;36.76;25.75
77939;BME280;67136;47.546;21.630;2023-06-26T11:14:11;100028.59;;;35.78;26.40
77939;BME280;67136;47.546;21.630;2023-06-26T11:17:13;100022.75;;;34.26;27.97
77939;BME280;67136;47.546;21.630;2023-06-26T11:20:17;100029.00;;;34.27;28.48
77939;BME280;67136;47.546;21.630;2023-06-26T11:23:22;100028.41;;;33.72;29.98
77939;BME280;67136;47.546;21.630;2023-06-26T11:26:27;100028.88;;;33.02;31.03
77939;BME280;67136;47.546;21.630;2023-06-26T11:29:30;100027.63;;;32.74;31.04
77939;BME280;67136;47.546;21.630;2023-06-26T11:32:33;100021.00;;;32.27;31.96
77939;BME280;67136;47.546;21.630;2023-06-26T11:35:35;100027.00;;;31.64;33.79
77939;BME280;67136;47.546;21.630;2023-06-26T11:38:39;100028.06;;;31.68;33.16
77939;BME280;67136;47.546;21.630;2023-06-26T11:41:45;100026.84;;;31.03;34.14
77939;BME280;67136;47.546;21.630;2023-06-26T11:44:48;100033.34;;;31.07;34.59
77939;BME280;67136;47.546;21.630;2023-06-26T11:47:50;100030.87;;;30.86;35.90
77939;BME280;67136;47.546;21.630;2023-06-26T11:50:54;100030.59;;;30.87;35.74
77939;BME280;67136;47.546;21.630;2023-06-26T11:53:56;100029.06;;;31.11;35.55
77939;BME280;67136;47.546;21.630;2023-06-26T11:56:59;100029.59;;;31.18;35.31
77939;BME280;67136;47.546;21.630;2023-06-26T12:00:16;100022.56;;;31.07;35.62
77939;BME280;67136;47.546;21.630;2023-06-26T12:03:19;100027.69;;;31.04;35.88
77939;BME280;67136;47.546;21.630;2023-06-26T12:06:22;100030.75;;;31.37;34.94
77939;BME280;67136;47.546;21.630;2023-06-26T12:09:26;100022.09;;;31.71;34.57
77939;BME280;67136;47.546;21.630;2023-06-26T12:12:31;100021.03;;;31.56;34.83
77939;BME280;67136;47.546;21.630;2023-06-26T12:15:35;100026.44;;;31.72;34.53
77939;BME280;67136;47.546;21.630;2023-06-26T12:18:38;100030.31;;;32.80;32.88
77939;BME280;67136;47.546;21.630;2023-06-26T12:21:47;100019.53;;;34.71;30.10
77939;BME280;67136;47.546;21.630;2023-06-26T12:24:50;100016.09;;;34.66;27.13
77939;BME280;67136;47.546;21.630;2023-06-26T12:27:53;100018.84;;;35.59;28.04
77939;BME280;67136;47.546;21.630;2023-06-26T12:31:20;100017.00;;;36.18;26.75
77939;BME280;67136;47.546;21.630;2023-06-26T12:34:33;100012.09;;;34.58;29.63
77939;BME280;67136;47.546;21.630;2023-06-26T12:37:37;100007.41;;;34.64;29.10
77939;BME280;67136;47.546;21.630;2023-06-26T12:40:45;100007.91;;;37.62;25.93
77939;BME280;67136;47.546;21.630;2023-06-26T12:43:49;100009.41;;;37.90;24.88
77939;BME280;67136;47.546;21.630;2023-06-26T12:47:02;99999.44;;;37.94;25.49
77939;BME280;67136;47.546;21.630;2023-06-26T12:50:05;99994.53;;;35.81;27.59
77939;BME280;67136;47.546;21.630;2023-06-26T12:53:08;100003.53;;;34.88;29.33
77939;BME280;67136;47.546;21.630;2023-06-26T12:56:11;100000.88;;;35.76;28.46
77939;BME280;67136;47.546;21.630;2023-06-26T12:59:14;100001.09;;;37.51;25.24
77939;BME280;67136;47.546;21.630;2023-06-26T13:02:16;100005.50;;;39.26;22.76
77939;BME280;67136;47.546;21.630;2023-06-26T13:05:19;99995.59;;;39.93;21.14
77939;BME280;67136;47.546;21.630;2023-06-26T13:08:22;99989.47;;;38.68;22.05
77939;BME280;67136;47.546;21.630;2023-06-26T13:11:25;100001.25;;;39.71;20.16
77939;BME280;67136;47.546;21.630;2023-06-26T13:14:28;99989.88;;;39.18;21.43
77939;BME280;67136;47.546;21.630;2023-06-26T13:17:30;99971.37;;;38.11;23.29
77939;BME280;67136;47.546;21.630;2023-06-26T13:20:33;99982.44;;;39.44;22.09
77939;BME280;67136;47.546;21.630;2023-06-26T13:23:36;99978.72;;;40.20;21.22
77939;BME280;67136;47.546;21.630;2023-06-26T13:26:38;99985.50;;;38.91;21.98
77939;BME280;67136;47.546;21.630;2023-06-26T13:29:41;99979.59;;;40.70;20.60
77939;BME280;67136;47.546;21.630;2023-06-26T13:32:44;99980.63;;;41.28;20.06
77939;BME280;67136;47.546;21.630;2023-06-26T13:35:47;99979.38;;;39.28;21.42
77939;BME280;67136;47.546;21.630;2023-06-26T13:38:49;99976.63;;;39.71;21.87
77939;BME280;67136;47.546;21.630;2023-06-26T13:41:58;99967.53;;;38.03;24.11
77939;BME280;67136;47.546;21.630;2023-06-26T13:45:01;99973.28;;;37.27;25.26
77939;BME280;67136;47.546;21.630;2023-06-26T13:48:14;99974.66;;;36.53;25.98
77939;BME280;67136;47.546;21.630;2023-06-26T13:51:19;99963.78;;;35.80;26.87
77939;BME280;67136;47.546;21.630;2023-06-26T13:54:22;99962.00;;;35.57;27.06
77939;BME280;67136;47.546;21.630;2023-06-26T13:57:24;99959.75;;;35.46;26.22
77939;BME280;67136;47.546;21.630;2023-06-26T14:00:30;99953.25;;;35.60;25.97
77939;BME280;67136;47.546;21.630;2023-06-26T14:03:33;99951.75;;;35.68;25.49
77939;BME280;67136;47.546;21.630;2023-06-26T14:06:35;99960.41;;;36.15;25.38
77939;BME280;67136;47.546;21.630;2023-06-26T14:09:38;99951.84;;;36.63;23.74
77939;BME280;67136;47.546;21.630;2023-06-26T14:12:41;99946.56;;;36.80;23.77
77939;BME280;67136;47.546;21.630;2023-06-26T14:15:46;99946.75;;;37.41;23.43
77939;BME280;67136;47.546;21.630;2023-06-26T14:18:49;99942.56;;;36.37;24.60
77939;BME280;67136;47.546;21.630;2023-06-26T14:21:52;99947.87;;;36.69;24.25
77939;BME280;67136;47.546;21.630;2023-06-26T14:24:54;99944.00;;;36.34;24.17
77939;BME280;67136;47.546;21.630;2023-06-26T14:27:58;99941.47;;;36.10;24.23
77939;BME280;67136;47.546;21.630;2023-06-26T14:31:00;99929.72;;;35.00;25.90
77939;BME280;67136;47.546;21.630;2023-06-26T14:34:03;99937.44;;;34.74;25.82
77939;BME280;67136;47.546;21.630;2023-06-26T14:37:06;99934.34;;;34.81;25.98
77939;BME280;67136;47.546;21.630;2023-06-26T14:40:09;99933.56;;;34.99;25.66
77939;BME280;67136;47.546;21.630;2023-06-26T14:43:12;99930.81;;;33.62;27.33
77939;BME280;67136;47.546;21.630;2023-06-26T14:46:16;99928.03;;;33.05;28.62
77939;BME280;67136;47.546;21.630;2023-06-26T14:49:18;99923.38;;;32.67;29.04
77939;BME280;67136;47.546;21.630;2023-06-26T14:52:21;99923.19;;;32.53;28.98
77939;BME280;67136;47.546;21.630;2023-06-26T14:55:24;99917.13;;;32.03;29.87
77939;BME280;67136;47.546;21.630;2023-06-26T14:58:26;99911.16;;;32.16;29.57
77939;BME280;67136;47.546;21.630;2023-06-26T15:01:29;99909.50;;;32.15;29.80
77939;BME280;67136;47.546;21.630;2023-06-26T15:04:32;99915.47;;;32.12;30.67
77939;BME280;67136;47.546;21.630;2023-06-26T15:07:35;99909.03;;;31.78;31.45
77939;BME280;67136;47.546;21.630;2023-06-26T15:10:38;99900.41;;;30.95;33.32
77939;BME280;67136;47.546;21.630;2023-06-26T15:13:41;99904.75;;;31.06;33.18
77939;BME280;67136;47.546;21.630;2023-06-26T15:16:44;99896.09;;;30.79;33.98
77939;BME280;67136;47.546;21.630;2023-06-26T15:19:46;99902.50;;;30.68;34.50
77939;BME280;67136;47.546;21.630;2023-06-26T15:22:49;99896.00;;;30.49;35.01
77939;BME280;67136;47.546;21.630;2023-06-26T15:25:52;99901.22;;;30.09;35.78
77939;BME280;67136;47.546;21.630;2023-06-26T15:28:55;99899.50;;;29.98;36.23
77939;BME280;67136;47.546;21.630;2023-06-26T15:31:57;99895.72;;;29.89;35.95
77939;BME280;67136;47.546;21.630;2023-06-26T15:35:00;99902.50;;;29.60;35.99
77939;BME280;67136;47.546;21.630;2023-06-26T15:38:02;99901.00;;;29.42;35.86
77939;BME280;67136;47.546;21.630;2023-06-26T15:41:05;99902.09;;;29.41;35.35
77939;BME280;67136;47.546;21.630;2023-06-26T15:44:08;99912.75;;;29.26;35.27
77939;BME280;67136;47.546;21.630;2023-06-26T15:47:10;99909.03;;;29.05;35.20
77939;BME280;67136;47.546;21.630;2023-06-26T15:50:13;99894.37;;;28.91;35.23
77939;BME280;67136;47.546;21.630;2023-06-26T15:53:16;99901.72;;;28.48;35.14
77939;BME280;67136;47.546;21.630;2023-06-26T15:56:20;99907.81;;;28.43;35.33
77939;BME280;67136;47.546;21.630;2023-06-26T15:59:22;99900.00;;;28.20;35.94